ADDS METAR Data INFO
IDs: Format: Raw Decoded Include TAF

Data at: 1250 UTC 19 Oct 2017

KHHR 191245Z AUTO 00000KT 8SM BKN015 BKN020 19/17 A2989 RMK AO2 T01940167
KHHR 191153Z AUTO 00000KT 9SM OVC013 19/16 A2989 RMK AO2 SLP120 T01890161 10206 20183 56005
KHHR 191109Z AUTO 00000KT 8SM BKN013 OVC018 18/16 A2989 RMK AO2 T01830156
KHHR 191053Z AUTO 00000KT 9SM FEW013 BKN019 18/15 A2989 RMK AO2 SLP120 T01830150
KHHR 190953Z AUTO 00000KT 9SM CLR 18/16 A2990 RMK AO2 SLP122 T01830156
KHHR 190853Z AUTO 00000KT 9SM CLR 19/16 A2991 RMK AO2 SLP125 T01890161 56003
KHHR 190753Z AUTO 00000KT 9SM CLR 19/16 A2991 RMK AO2 SLP126 T01940161 402780194
KHHR 190653Z AUTO 00000KT 10SM CLR 20/16 A2991 RMK AO2 SLP127 T02000161
KHHR 190553Z AUTO 24003KT 10SM CLR 21/16 A2991 RMK AO2 SLP128 T02060156 10250 20206 51007
KHHR 190453Z AUTO 26004KT 10SM CLR 21/14 A2991 RMK AO2 SLP127 T02110144
KHHR 190353Z 25007KT 10SM CLR 22/11 A2990 RMK AO2 SLP123 T02220111
KHHR 190253Z 24005KT 10SM CLR 22/14 A2989 RMK AO2 SLP122 T02170144 53001
KHHR 190153Z 25005KT 10SM CLR 22/16 A2989 RMK AO2 SLP119 T02220161
KHHR 190053Z 29004KT 10SM CLR 24/13 A2988 RMK AO2 SLP118 T02390128
KHHR 182353Z 24003KT 10SM CLR 24/16 A2989 RMK AO2 SLP120 T02390161 10278 20239 56011
KHHR 182253Z 26010KT 10SM CLR 26/14 A2990 RMK AO2 SLP125 T02560144
KHHR 182153Z 28007KT 10SM CLR 27/12 A2990 RMK AO2 SLP125 T02670122
KHHR 182053Z 25010KT 10SM CLR 27/16 A2992 RMK AO2 SLP132 T02670156 58011
KHHR 181953Z 23007KT 10SM CLR 27/16 A2994 RMK AO2 SLP136 T02670161
KHHR 181853Z 16004KT 10SM CLR 27/14 A2995 RMK AO2 SLP140 T02720139
KHHR 181753Z 11003KT 10SM CLR 26/15 A2996 RMK AO2 SLP143 T02610150 10261 20200 51007
KHHR 181653Z 12007KT 090V160 10SM CLR 24/14 A2996 RMK AO2 SLP143 T02440144
KHHR 181553Z VRB04KT 9SM CLR 24/16 A2995 RMK AO2 SLP141 T02390156
KHHR 181453Z 00000KT 7SM CLR 21/17 A2994 RMK AO2 SLP136 T02060167 53010
KHHR 181353Z 00000KT 10SM CLR 20/17 A2992 RMK AO2 SLP132 T02000167
KHHR 181253Z 00000KT 10SM CLR 20/17 A2992 RMK AO2 SLP129 T02000167
KHHR 181153Z AUTO 06003KT 10SM CLR 20/16 A2991 RMK AO2 SLP126 T02000161 10228 20200 56007
KHHR 181053Z AUTO 00000KT 10SM CLR 20/17 A2992 RMK AO2 SLP130 T02000167
KHHR 180953Z AUTO 00000KT 10SM CLR 20/15 A2992 RMK AO2 SLP129 T02000150
KHHR 180853Z AUTO 00000KT 10SM CLR 21/13 A2993 RMK AO2 SLP134 T02110133 55000
KHHR 180753Z AUTO 00000KT 10SM CLR 22/13 A2992 RMK AO2 SLP132 T02170133 403280183
KHHR 180653Z AUTO 00000KT 10SM CLR 22/13 A2992 RMK AO2 SLP130 T02220133
KHHR 180553Z AUTO 00000KT 10SM CLR 22/13 A2993 RMK AO2 SLP134 T02220133 10278 20222 53006
KHHR 180453Z 00000KT 10SM CLR 23/13 A2992 RMK AO2 SLP130 T02330128
KHHR 180353Z 00000KT 10SM CLR 24/13 A2991 RMK AO2 SLP128 T02390128
KHHR 180253Z 00000KT 10SM CLR 24/13 A2991 RMK AO2 SLP127 T02440128 53003
KHHR 180153Z 17003KT 10SM CLR 24/13 A2990 RMK AO2 SLP125 T02440133
KHHR 180053Z AUTO 24006KT 10SM CLR 26/13 A2991 RMK AO2 SLP126 T02560128